createdAt,value
2018-02-02T13:44:11.278Z,20.78
2018-02-02T13:45:11.128Z,20.79
2018-02-02T13:46:11.149Z,20.88
2018-02-02T13:47:11.163Z,21.02
2018-02-02T13:48:11.091Z,21.17
2018-02-02T13:49:11.418Z,21.37
2018-02-02T13:50:11.079Z,21.55
2018-02-02T13:51:11.081Z,21.71
2018-02-02T13:52:11.081Z,21.81
2018-02-02T13:53:11.081Z,21.94
2018-02-02T13:54:11.114Z,22.13
2018-02-02T13:55:11.083Z,22.34
2018-02-02T13:56:11.096Z,22.47
2018-02-02T13:57:11.084Z,22.57
2018-02-02T13:58:11.087Z,22.67
2018-02-02T13:59:11.088Z,22.74
2018-02-02T14:00:11.118Z,22.83
2018-02-02T14:01:11.088Z,22.9
2018-02-02T14:02:11.094Z,22.97
2018-02-02T14:03:11.091Z,23.03
2018-02-02T14:04:11.091Z,23.08
2018-02-02T14:05:11.269Z,23.1
2018-02-02T14:06:11.096Z,23.16
2018-02-02T14:07:11.095Z,23.2
2018-02-02T14:08:11.094Z,23.22
2018-02-02T14:09:11.097Z,23.23
2018-02-02T14:10:11.099Z,23.28
2018-02-02T14:11:11.125Z,23.29
2018-02-02T14:12:11.098Z,23.32
2018-02-02T14:13:11.276Z,23.36
2018-02-02T14:14:11.169Z,23.37
2018-02-02T14:15:11.249Z,23.39
2018-02-02T14:16:11.374Z,23.43
2018-02-02T14:17:11.109Z,23.44
2018-02-02T14:18:11.104Z,23.45
2018-02-02T14:19:11.102Z,23.53
2018-02-02T14:20:11.136Z,23.52
2018-02-02T14:21:11.330Z,23.57
2018-02-02T14:22:11.266Z,23.58
2018-02-02T14:23:11.110Z,23.58
2018-02-02T14:24:11.110Z,23.63
2018-02-02T14:25:11.112Z,23.63
2018-02-02T14:26:11.115Z,23.63
2018-02-02T14:27:11.141Z,23.65
2018-02-02T14:28:11.114Z,23.63
2018-02-02T14:29:11.114Z,23.65
2018-02-02T14:30:11.116Z,23.67
2018-02-02T14:31:11.113Z,23.73
2018-02-02T14:32:11.143Z,23.67
2018-02-02T14:33:11.115Z,23.69
2018-02-02T14:34:11.116Z,23.67
2018-02-02T14:35:11.119Z,23.62
2018-02-02T14:36:11.562Z,23.54
2018-02-02T14:37:11.121Z,23.54
2018-02-02T14:38:11.121Z,23.5
2018-02-02T14:39:11.119Z,23.54
2018-02-02T14:40:11.120Z,23.44
2018-02-02T14:41:11.125Z,23.45
2018-02-02T14:42:11.150Z,23.41
2018-02-02T14:43:11.123Z,23.42
2018-02-02T14:44:11.123Z,23.43
2018-02-02T14:45:11.123Z,23.41
2018-02-02T14:46:11.125Z,23.39
2018-02-02T14:47:11.161Z,23.38
2018-02-02T14:48:11.131Z,23.4
2018-02-02T14:49:11.130Z,23.38
2018-02-02T14:50:11.131Z,23.39
2018-02-02T14:51:11.160Z,23.39
2018-02-02T14:52:11.133Z,23.36
2018-02-02T14:53:11.130Z,23.36
2018-02-02T14:54:11.133Z,23.34
2018-02-02T14:55:11.156Z,23.35
2018-02-02T14:56:11.493Z,23.37
2018-02-02T14:57:11.136Z,23.34
2018-02-02T14:58:11.136Z,23.33
2018-02-02T14:59:11.138Z,23.29
2018-02-02T15:00:11.138Z,23.33
2018-02-02T15:01:11.142Z,23.32
2018-02-02T15:02:11.166Z,23.35
2018-02-02T15:03:11.140Z,23.36
2018-02-02T15:04:11.140Z,23.38
2018-02-02T15:05:11.145Z,23.36
2018-02-02T15:06:11.143Z,23.41
2018-02-02T15:07:11.551Z,23.37
2018-02-02T15:08:11.159Z,23.4
2018-02-02T15:09:11.158Z,23.46
2018-02-02T15:10:11.145Z,23.46
2018-02-02T15:11:11.196Z,23.5
2018-02-02T15:12:11.164Z,23.47
2018-02-02T15:13:11.148Z,23.47
2018-02-02T15:14:11.150Z,23.45
2018-02-02T15:15:11.151Z,23.47
2018-02-02T15:16:11.151Z,23.48
2018-02-02T15:17:11.322Z,23.49
2018-02-02T15:18:11.152Z,23.47
2018-02-02T15:19:11.154Z,23.54
2018-02-02T15:20:11.228Z,23.57
2018-02-02T15:21:11.154Z,23.63
2018-02-02T15:22:11.687Z,23.67
2018-02-02T15:23:11.218Z,23.71
2018-02-02T15:24:11.157Z,23.73
2018-02-02T15:25:11.157Z,23.75
2018-02-02T15:26:11.160Z,23.77
2018-02-02T15:27:11.161Z,23.76
2018-02-02T15:28:11.196Z,23.79
2018-02-02T15:29:11.163Z,23.76
2018-02-02T15:30:11.169Z,23.77
2018-02-02T15:31:11.164Z,23.79
2018-02-02T15:32:11.166Z,23.79
2018-02-02T15:33:11.197Z,23.83
2018-02-02T15:34:11.172Z,23.83
2018-02-02T15:35:11.179Z,23.79
2018-02-02T15:36:11.168Z,23.77
2018-02-02T15:37:11.583Z,23.83
2018-02-02T15:38:11.168Z,23.83
2018-02-02T15:39:11.172Z,23.81
2018-02-02T15:40:11.172Z,23.85
2018-02-02T15:41:11.173Z,23.85
2018-02-02T15:42:11.171Z,23.88
2018-02-02T15:43:11.203Z,23.87
2018-02-02T15:44:11.173Z,23.86
2018-02-02T15:45:11.175Z,23.89
2018-02-02T15:46:11.174Z,23.91
2018-02-02T15:47:11.183Z,23.85
2018-02-02T15:48:11.204Z,23.9
2018-02-02T15:49:11.177Z,23.88
2018-02-02T15:50:11.179Z,23.88
2018-02-02T15:51:11.181Z,23.89
2018-02-02T15:52:11.181Z,23.9
2018-02-02T15:53:11.209Z,23.94
2018-02-02T15:54:11.210Z,23.92
2018-02-02T15:55:11.185Z,23.89
2018-02-02T15:56:11.204Z,23.9
2018-02-02T15:57:11.216Z,23.88
2018-02-02T15:58:11.186Z,23.92
2018-02-02T15:59:11.219Z,23.92
2018-02-02T16:00:11.188Z,23.92
2018-02-02T16:01:11.206Z,23.91
2018-02-02T16:02:11.187Z,23.92
2018-02-02T16:03:11.414Z,23.92
2018-02-02T16:04:11.189Z,23.91
2018-02-02T16:05:11.191Z,23.92
2018-02-02T16:06:11.189Z,23.91
2018-02-02T16:07:11.196Z,23.93
2018-02-02T16:08:11.193Z,23.91
2018-02-02T16:09:11.222Z,23.95
2018-02-02T16:10:11.196Z,23.93
2018-02-02T16:11:11.191Z,23.93
2018-02-02T16:12:11.198Z,23.91
2018-02-02T16:13:11.197Z,23.93
2018-02-02T16:14:11.319Z,23.92
2018-02-02T16:15:11.225Z,23.95
2018-02-02T16:16:11.239Z,23.96
2018-02-02T16:17:11.200Z,23.97
2018-02-02T16:18:11.206Z,23.91
2018-02-02T16:19:11.203Z,23.96
2018-02-02T16:20:11.229Z,23.98
2018-02-02T16:21:11.202Z,23.95
2018-02-02T16:22:11.205Z,23.92
2018-02-02T16:23:11.205Z,23.95
2018-02-02T16:24:11.512Z,23.98
2018-02-02T16:25:11.588Z,24.01
2018-02-02T16:26:11.238Z,24.03
2018-02-02T16:27:11.208Z,24.02
2018-02-02T16:28:11.219Z,24.02
2018-02-02T16:29:11.215Z,24.03
2018-02-02T16:30:11.219Z,24.05
2018-02-02T16:31:11.239Z,24.06
2018-02-02T16:32:11.212Z,24.06
2018-02-02T16:33:11.213Z,24.03
2018-02-02T16:34:11.215Z,24.05
2018-02-02T16:35:11.215Z,24.07
2018-02-02T16:36:11.252Z,24.07
2018-02-02T16:37:11.229Z,24
2018-02-02T16:38:11.218Z,23.98
2018-02-02T16:39:11.220Z,24.02
2018-02-02T16:40:11.220Z,24.06
2018-02-02T16:41:11.220Z,24.05
2018-02-02T16:42:11.225Z,24.05
2018-02-02T16:43:11.223Z,24.07
2018-02-02T16:44:11.223Z,24.08
2018-02-02T16:45:11.227Z,24.06
2018-02-02T16:46:11.224Z,24.07
2018-02-02T16:47:11.266Z,24.06
2018-02-02T16:48:11.245Z,24.03
2018-02-02T16:49:11.227Z,24.06
2018-02-02T16:50:11.231Z,24.07
2018-02-02T16:51:11.228Z,24.02
2018-02-02T16:52:11.227Z,24.06
2018-02-02T16:53:11.486Z,24.04
2018-02-02T16:54:11.231Z,24.01
2018-02-02T16:55:11.254Z,24
2018-02-02T16:56:11.291Z,24.02
2018-02-02T16:57:11.232Z,24.02
2018-02-02T16:58:11.230Z,24.01
2018-02-02T16:59:11.447Z,24.04
2018-02-02T17:00:11.254Z,24.01
2018-02-02T17:01:11.232Z,24.01
2018-02-02T17:02:11.242Z,24.01
2018-02-02T17:03:11.238Z,23.99
2018-02-02T17:04:11.264Z,23.98
2018-02-02T17:05:11.269Z,24.01
2018-02-02T17:06:11.244Z,24.03
2018-02-02T17:07:11.245Z,24.04
2018-02-02T17:08:11.244Z,24.05
2018-02-02T17:09:11.268Z,24.05
2018-02-02T17:10:11.636Z,24.1
2018-02-02T17:11:11.247Z,24.1
2018-02-02T17:12:11.244Z,24.11
2018-02-02T17:13:11.260Z,24.09
2018-02-02T17:14:11.252Z,24.13
2018-02-02T17:15:11.252Z,24.18
2018-02-02T17:16:11.277Z,24.17
2018-02-02T17:17:11.249Z,24.18
2018-02-02T17:18:11.251Z,24.21
2018-02-02T17:19:11.253Z,24.2
2018-02-02T17:20:11.273Z,24.18
2018-02-02T17:21:11.286Z,24.18
2018-02-02T17:22:11.253Z,24.22
2018-02-02T17:23:11.285Z,24.18
2018-02-02T17:24:11.258Z,24.16
2018-02-02T17:25:11.256Z,24.18
2018-02-02T17:26:11.257Z,24.16
2018-02-02T17:27:11.287Z,24.18
2018-02-02T17:28:11.261Z,24.19
2018-02-02T17:29:11.259Z,24.2
2018-02-02T17:30:11.262Z,24.2
2018-02-02T17:31:11.261Z,24.2
2018-02-02T17:32:11.288Z,24.19
2018-02-02T17:33:11.276Z,24.18
2018-02-02T17:34:11.288Z,24.2
2018-02-02T17:35:11.264Z,24.18
2018-02-02T17:36:11.264Z,24.17
2018-02-02T17:37:11.292Z,24.21
2018-02-02T17:38:11.269Z,24.2
2018-02-02T17:39:11.264Z,24.2
2018-02-02T17:40:11.268Z,24.2
2018-02-02T17:41:11.268Z,24.22
2018-02-02T17:42:11.672Z,24.2
2018-02-02T17:43:11.270Z,24.19
2018-02-02T17:44:11.273Z,24.17
2018-02-02T17:45:11.276Z,24.22
2018-02-02T17:46:11.588Z,24.22
2018-02-02T17:47:11.274Z,24.21
2018-02-02T17:48:11.301Z,24.18
2018-02-02T17:49:11.283Z,24.17
2018-02-02T17:50:11.277Z,24.21
2018-02-02T17:51:11.277Z,24.19
2018-02-02T17:52:11.280Z,24.17
2018-02-02T17:53:11.328Z,24.2
2018-02-02T17:54:11.281Z,24.18
2018-02-02T17:55:11.280Z,24.19
2018-02-02T17:56:11.552Z,24.2
2018-02-02T17:57:11.285Z,24.2
2018-02-02T17:58:11.287Z,24.17
2018-02-02T17:59:11.312Z,24.13
2018-02-02T18:00:11.286Z,24.2
2018-02-02T18:01:11.284Z,24.16
2018-02-02T18:02:11.375Z,24.21
2018-02-02T18:03:11.293Z,24.18
2018-02-02T18:04:11.328Z,24.17
2018-02-02T18:05:11.289Z,24.15
2018-02-02T18:06:11.314Z,24.15
2018-02-02T18:07:11.290Z,24.16
2018-02-02T18:08:11.350Z,24.16
2018-02-02T18:09:11.342Z,24.17
2018-02-02T18:10:11.293Z,24.18
2018-02-02T18:11:11.297Z,24.2
2018-02-02T18:12:11.295Z,24.25
2018-02-02T18:13:11.302Z,24.26
2018-02-02T18:14:11.509Z,24.28
2018-02-02T18:15:11.294Z,24.3
2018-02-02T18:16:11.306Z,24.3
2018-02-02T18:17:11.300Z,24.3
2018-02-02T18:18:11.299Z,24.33
2018-02-02T18:19:11.471Z,24.34
2018-02-02T18:20:11.353Z,24.37
2018-02-02T18:50:58.734Z,21.18
2018-02-02T18:51:58.612Z,21.27
2018-02-02T18:52:58.612Z,21.36
2018-02-02T18:53:58.657Z,21.47
2018-02-02T18:54:58.690Z,21.54
2018-02-02T18:56:40.662Z,21.84
2018-02-02T18:57:40.682Z,21.84
2018-02-02T18:58:40.688Z,21.79
2018-02-02T19:00:11.750Z,22.11
2018-02-02T19:01:11.677Z,22.21
2018-02-02T19:02:11.735Z,22.32
2018-02-02T19:03:11.655Z,22.42
2018-02-02T19:05:18.856Z,22.55
2018-02-02T19:06:18.863Z,22.61
2018-02-02T19:07:18.937Z,22.65
2018-02-02T19:08:18.818Z,22.68
2018-02-02T19:09:18.871Z,22.7
2018-02-02T19:10:18.876Z,22.74
2018-02-02T19:12:26.536Z,22.78
2018-02-02T19:13:26.448Z,22.77
2018-02-02T19:14:26.391Z,22.81
2018-02-02T19:15:26.462Z,22.74
2018-02-02T19:16:26.453Z,22.7
2018-02-02T19:17:26.400Z,22.74
2018-02-02T19:18:26.438Z,22.78
2018-02-02T19:19:26.406Z,22.84
2018-02-02T19:20:26.399Z,22.9
2018-02-02T19:21:26.415Z,22.96
2018-02-02T19:22:26.406Z,23.03
2018-02-02T19:25:37.520Z,23.14
2018-02-02T19:26:37.463Z,23.18
2018-02-02T19:27:37.462Z,23.1
2018-02-02T19:28:37.464Z,23.12
2018-02-02T19:29:37.871Z,23.2
2018-02-02T19:30:37.485Z,23.27
2018-02-02T19:31:37.468Z,23.32
2018-02-02T19:32:37.466Z,23.38
2018-02-02T19:33:37.466Z,23.42
2018-02-02T19:34:37.466Z,23.46
2018-02-02T19:35:37.496Z,23.5
2018-02-02T19:36:37.484Z,23.53
2018-02-02T19:37:37.470Z,23.57
2018-02-02T19:38:37.470Z,23.6
2018-02-02T19:39:37.474Z,23.62
2018-02-02T19:40:37.649Z,23.66
2018-02-02T19:41:37.476Z,23.68
2018-02-02T19:42:37.473Z,23.69
2018-02-02T19:43:37.475Z,23.72
2018-02-02T19:44:37.474Z,23.73
2018-02-02T19:45:37.475Z,23.74
2018-02-02T19:46:37.850Z,23.76
2018-02-02T19:47:37.492Z,23.78
2018-02-02T19:49:28.416Z,23.58
2018-02-02T19:50:28.374Z,23.7
2018-02-02T19:51:28.377Z,23.74
2018-02-02T19:52:28.380Z,23.78
2018-02-02T19:53:28.378Z,23.79
2018-02-02T19:54:28.377Z,23.83
2018-02-02T19:55:28.409Z,23.87
2018-02-02T19:56:28.376Z,23.89
2018-02-02T19:57:28.378Z,23.88
2018-02-02T19:58:28.382Z,23.89
2018-02-02T19:59:28.383Z,23.93
2018-02-02T20:00:28.409Z,23.96
2018-02-02T20:01:28.381Z,23.99
2018-02-02T20:02:28.382Z,24.01
2018-02-02T20:03:28.383Z,24
2018-02-02T20:04:28.387Z,24
2018-02-02T20:05:28.552Z,24
2018-02-02T20:06:28.387Z,24.01
2018-02-02T20:07:28.388Z,23.95
2018-02-02T20:08:28.388Z,24
2018-02-02T20:10:33.094Z,24.02
2018-02-02T20:11:33.038Z,24.05
2018-02-02T20:12:33.042Z,24.04
2018-02-02T20:13:33.040Z,24.06
2018-02-02T20:14:33.041Z,24.06
2018-02-02T20:15:33.039Z,24.06
2018-02-02T20:16:33.104Z,24.07
2018-02-02T20:17:33.036Z,24.08
2018-02-02T20:18:56.607Z,24.1
2018-02-02T20:19:56.552Z,24.1
2018-02-02T20:20:56.552Z,24.11
2018-02-02T20:21:56.597Z,24.13
2018-02-02T20:22:56.632Z,24.13
2018-02-02T20:23:56.554Z,24.08
2018-02-02T20:24:56.594Z,24.11
2018-02-02T20:25:56.555Z,24.14
2018-02-02T20:26:56.556Z,24.16
2018-02-02T20:28:50.730Z,24.18
2018-02-02T20:29:50.696Z,24.17
2018-02-02T20:30:50.870Z,24.17
2018-02-02T20:31:50.731Z,24.17
2018-02-02T20:32:50.734Z,24.19
2018-02-02T20:33:50.695Z,24.2
2018-02-02T20:34:50.721Z,24.21
2018-02-02T20:35:50.705Z,24.21
2018-02-02T20:36:50.902Z,24.18
2018-02-02T20:37:50.850Z,24.21
2018-02-02T20:38:50.701Z,24.2
2018-02-02T20:39:50.747Z,24.21
2018-02-02T20:40:50.711Z,24.2
2018-02-02T20:42:18.743Z,24.22
2018-02-02T20:43:18.253Z,24.23
2018-02-02T20:44:18.190Z,24.21
2018-02-02T20:45:18.177Z,24.2
2018-02-02T20:46:18.185Z,24.21
2018-02-02T20:47:18.166Z,24.2
2018-02-02T20:48:18.227Z,24.22
2018-02-02T20:49:18.134Z,24.24
2018-02-02T20:50:18.315Z,24.26
2018-02-02T20:51:18.155Z,24.26
2018-02-02T20:52:21.137Z,24.27
2018-02-02T20:53:18.147Z,24.28
2018-02-02T20:54:18.168Z,24.3
2018-02-02T20:55:21.232Z,24.29
2018-02-02T20:56:18.155Z,24.29
2018-02-02T20:57:18.333Z,24.29
2018-02-02T20:58:18.162Z,24.29
2018-02-02T20:59:18.175Z,24.31
2018-02-02T21:00:18.153Z,24.31
2018-02-02T21:01:18.224Z,24.31
2018-02-02T21:02:18.277Z,24.33
2018-02-02T21:03:18.163Z,24.33
2018-02-02T21:04:18.179Z,24.34
2018-02-02T21:05:18.163Z,24.36
2018-02-02T21:06:18.311Z,24.36
2018-02-02T21:07:18.204Z,24.38
2018-02-02T21:08:18.318Z,24.37
2018-02-02T21:09:18.197Z,24.39
2018-02-02T21:10:18.146Z,24.39
2018-02-02T21:11:18.166Z,24.4
2018-02-02T21:12:18.223Z,24.4
2018-02-02T21:13:18.175Z,24.4
2018-02-02T21:14:18.248Z,24.42
2018-02-02T21:15:18.290Z,24.42
2018-02-02T21:16:18.185Z,24.42
2018-02-02T21:17:18.190Z,24.43
2018-02-02T21:18:18.186Z,24.44
2018-02-02T21:19:18.156Z,24.44
2018-02-02T21:20:18.187Z,24.44
2018-02-02T21:21:18.159Z,24.45
2018-02-02T21:22:18.162Z,24.45
2018-02-02T21:23:18.317Z,24.45
2018-02-02T21:24:18.163Z,24.46
2018-02-02T21:25:18.163Z,24.47
2018-02-02T21:26:18.168Z,24.47
2018-02-02T21:27:18.161Z,24.47
2018-02-02T21:28:18.164Z,24.48
2018-02-02T21:29:18.192Z,24.48
2018-02-02T21:30:18.167Z,24.48
2018-02-02T21:31:18.171Z,24.48
2018-02-02T21:32:18.167Z,24.48
2018-02-02T21:33:18.170Z,24.5
2018-02-02T21:34:18.302Z,24.5
2018-02-02T21:35:18.172Z,24.5
2018-02-02T21:36:18.183Z,24.51
2018-02-02T21:37:18.178Z,24.5
2018-02-02T21:38:18.173Z,24.5
2018-02-02T21:39:18.176Z,24.51
2018-02-02T21:40:18.203Z,24.51
2018-02-02T21:41:18.174Z,24.52
2018-02-02T21:42:18.177Z,24.51
2018-02-02T21:43:18.178Z,24.53
2018-02-02T21:44:18.178Z,24.52
2018-02-02T21:45:18.207Z,24.52
2018-02-02T21:46:18.208Z,24.52
2018-02-02T21:47:18.179Z,24.53
2018-02-02T21:48:18.185Z,24.53
2018-02-02T21:49:18.252Z,24.52
2018-02-02T21:50:18.211Z,24.51
2018-02-02T21:51:18.184Z,24.53
2018-02-02T21:52:18.185Z,24.52
2018-02-02T21:53:18.186Z,24.52
2018-02-02T21:54:18.190Z,24.53
2018-02-02T21:55:18.562Z,24.53
2018-02-02T21:57:24.793Z,24.53
2018-02-02T21:58:24.374Z,24.53
2018-02-02T21:59:24.370Z,24.52
2018-02-02T22:00:24.795Z,24.53
2018-02-02T22:01:24.374Z,24.53
2018-02-02T22:02:24.372Z,24.53
2018-02-02T22:03:24.374Z,24.53
2018-02-02T22:04:24.373Z,24.52
2018-02-02T22:05:24.374Z,24.52
2018-02-02T22:06:24.400Z,24.53
2018-02-02T22:07:24.378Z,24.53
2018-02-02T22:08:24.380Z,24.52
2018-02-02T22:09:24.380Z,24.53
2018-02-02T22:10:24.378Z,24.53
2018-02-02T22:11:24.406Z,24.52
2018-02-02T22:12:24.385Z,24.54
2018-02-02T22:13:24.384Z,24.54
2018-02-02T22:14:24.381Z,24.53
2018-02-02T22:15:24.384Z,24.54
2018-02-02T22:16:24.382Z,24.53
2018-02-02T22:17:24.432Z,24.54
2018-02-02T22:18:50.904Z,24.54
2018-02-02T22:19:50.876Z,24.54
2018-02-02T22:20:50.866Z,24.54
2018-02-02T22:21:50.870Z,24.55
2018-02-02T22:22:51.285Z,24.55
2018-02-02T22:23:50.870Z,24.55
2018-02-02T22:24:50.872Z,24.54
2018-02-02T22:25:50.872Z,24.54
2018-02-02T22:26:50.870Z,24.54
2018-02-02T22:27:50.873Z,24.55
2018-02-02T22:28:50.903Z,24.55
2018-02-02T22:29:50.874Z,24.54
2018-02-02T22:30:50.880Z,24.55
